createdAt,value
2019-05-02T00:01:15.635Z,69.20
2019-05-02T00:03:46.485Z,69.20
2019-05-02T00:06:16.834Z,69.30
2019-05-02T00:08:47.477Z,69.30
2019-05-02T00:11:18.097Z,69.40
2019-05-02T00:13:48.671Z,69.20
2019-05-02T00:16:19.642Z,69.50
2019-05-02T00:18:50.304Z,69.70
2019-05-02T00:21:21.334Z,69.50
2019-05-02T00:23:52.029Z,69.20
2019-05-02T00:26:24.635Z,69.40
2019-05-02T00:28:55.104Z,68.90
2019-05-02T00:31:26.024Z,69.00
2019-05-02T00:33:56.687Z,69.10
2019-05-02T00:36:27.357Z,69.00
2019-05-02T00:38:57.978Z,68.90
2019-05-02T00:41:28.613Z,68.80
2019-05-02T00:43:59.540Z,68.60
2019-05-02T00:46:34.590Z,68.60
2019-05-02T00:49:02.831Z,68.50
2019-05-02T00:51:33.693Z,68.70
2019-05-02T00:54:04.231Z,68.70
2019-05-02T00:56:34.824Z,68.50
2019-05-02T00:59:07.455Z,68.30
2019-05-02T01:01:39.420Z,68.50
2019-05-02T01:04:11.545Z,68.20
2019-05-02T01:06:44.718Z,68.10
2019-05-02T01:09:14.338Z,68.10
2019-05-02T01:11:44.908Z,68.30
2019-05-02T01:14:16.954Z,68.80
2019-05-02T01:16:49.406Z,68.70
2019-05-02T01:19:20.043Z,68.60
2019-05-02T01:21:50.795Z,68.80
2019-05-02T01:24:21.600Z,68.70
2019-05-02T01:27:10.264Z,68.40
2019-05-02T01:29:42.495Z,68.80
2019-05-02T01:32:14.744Z,69.00
2019-05-02T01:34:54.442Z,68.80
2019-05-02T01:37:39.184Z,68.90
2019-05-02T01:40:27.759Z,69.00
2019-05-02T01:43:19.820Z,68.90
2019-05-02T01:46:08.839Z,68.70
2019-05-02T01:48:57.498Z,68.70
2019-05-02T01:51:47.821Z,68.70
2019-05-02T01:54:18.137Z,68.80
2019-05-02T01:56:49.113Z,68.80
2019-05-02T01:59:21.463Z,68.70
2019-05-02T02:01:57.966Z,69.40
2019-05-02T02:04:27.326Z,69.40
2019-05-02T02:06:58.311Z,69.00
2019-05-02T02:09:28.915Z,69.20
2019-05-02T02:11:59.524Z,69.00
2019-05-02T02:14:30.176Z,69.20
2019-05-02T02:17:00.957Z,69.20
2019-05-02T02:19:34.779Z,69.20
2019-05-02T02:22:19.660Z,69.30
2019-05-02T02:24:55.963Z,69.50
2019-05-02T02:27:24.545Z,69.50
2019-05-02T02:29:56.392Z,69.80
2019-05-02T02:32:28.656Z,69.70
2019-05-02T02:35:03.659Z,69.80
2019-05-02T02:37:31.813Z,69.70
2019-05-02T02:40:02.417Z,70.30
2019-05-02T02:42:34.185Z,70.40
2019-05-02T02:45:13.117Z,70.80
2019-05-02T02:47:41.165Z,71.20
2019-05-02T02:50:11.734Z,71.30
2019-05-02T02:52:44.811Z,71.10
2019-05-02T02:55:16.188Z,71.40
2019-05-02T02:57:46.917Z,71.30
2019-05-02T03:00:17.626Z,71.60
2019-05-02T03:02:48.717Z,71.50
2019-05-02T03:05:26.333Z,71.50
2019-05-02T03:07:52.873Z,71.90
2019-05-02T03:10:23.948Z,71.80
2019-05-02T03:13:08.603Z,71.90
2019-05-02T03:15:42.369Z,72.10
2019-05-02T03:18:13.037Z,72.10
2019-05-02T03:20:43.614Z,72.20
2019-05-02T03:23:15.287Z,72.40
2019-05-02T03:25:50.917Z,72.20
2019-05-02T03:28:20.977Z,72.50
2019-05-02T03:30:51.042Z,71.80
2019-05-02T03:33:21.774Z,71.80
2019-05-02T03:35:52.540Z,71.80
2019-05-02T03:38:31.549Z,72.10
2019-05-02T03:40:55.677Z,72.20
2019-05-02T03:43:27.739Z,72.20
2019-05-02T03:45:58.632Z,72.20
2019-05-02T03:48:29.341Z,72.20
2019-05-02T03:51:00.093Z,72.20
2019-05-02T03:53:30.623Z,72.30
2019-05-02T03:56:10.786Z,72.40
2019-05-02T03:58:33.585Z,72.40
2019-05-02T04:01:04.336Z,72.40
2019-05-02T04:03:40.988Z,72.40
2019-05-02T04:06:07.436Z,72.30
2019-05-02T04:08:37.901Z,72.40
2019-05-02T04:11:17.140Z,72.10
2019-05-02T04:13:49.378Z,70.00
2019-05-02T04:16:20.104Z,68.90
2019-05-02T04:18:55.846Z,70.90
2019-05-02T04:21:26.073Z,71.50
2019-05-02T04:24:07.563Z,72.60
2019-05-02T04:26:27.917Z,73.40
2019-05-02T04:28:58.433Z,73.20
2019-05-02T04:31:31.393Z,73.60
2019-05-02T04:34:01.194Z,74.40
2019-05-02T04:36:31.897Z,75.60
2019-05-02T04:39:05.802Z,76.00
2019-05-02T04:41:35.281Z,75.20
2019-05-02T04:44:08.906Z,75.60
2019-05-02T04:46:38.795Z,74.30
2019-05-02T04:49:09.792Z,74.40
2019-05-02T04:51:40.738Z,74.10
2019-05-02T04:54:21.849Z,73.70
2019-05-02T04:56:49.612Z,73.50
2019-05-02T04:59:20.014Z,74.10
2019-05-02T05:01:54.679Z,74.50
2019-05-02T05:04:19.961Z,74.40
2019-05-02T05:06:55.925Z,74.70
2019-05-02T05:09:22.771Z,74.60
2019-05-02T05:11:53.926Z,74.40
2019-05-02T05:14:31.410Z,74.30
2019-05-02T05:16:58.208Z,73.90
2019-05-02T05:19:32.616Z,73.60
2019-05-02T05:22:04.846Z,74.00
2019-05-02T05:24:40.608Z,73.80
2019-05-02T05:27:08.323Z,73.10
2019-05-02T05:29:39.052Z,71.20
2019-05-02T05:32:10.269Z,70.70
2019-05-02T05:34:41.165Z,70.50
2019-05-02T05:37:13.480Z,71.30
2019-05-02T05:39:48.756Z,71.20
2019-05-02T05:42:17.878Z,73.80
2019-05-02T05:44:48.617Z,72.10
2019-05-02T05:47:21.242Z,71.10
2019-05-02T05:49:52.180Z,73.20
2019-05-02T05:52:23.587Z,69.20
2019-05-02T05:54:54.186Z,70.70
2019-05-02T05:57:25.371Z,76.40
2019-05-02T05:59:58.239Z,73.70
2019-05-02T06:02:28.410Z,70.80
2019-05-02T06:05:02.519Z,72.40
2019-05-02T06:07:33.089Z,70.30
2019-05-02T06:10:07.928Z,70.40
2019-05-02T06:12:36.094Z,70.30
2019-05-02T06:15:06.966Z,70.10
2019-05-02T06:17:37.569Z,70.00
2019-05-02T06:20:08.109Z,70.30
2019-05-02T06:22:38.700Z,69.60
2019-05-02T06:25:10.426Z,70.80
2019-05-02T06:27:41.337Z,69.90
2019-05-02T06:30:12.004Z,71.50
2019-05-02T06:32:42.869Z,70.90
2019-05-02T06:35:17.198Z,70.20
2019-05-02T06:37:50.125Z,70.20
2019-05-02T06:40:18.018Z,69.80
2019-05-02T06:42:48.831Z,70.60
2019-05-02T06:45:19.546Z,70.60
2019-05-02T06:47:50.108Z,71.30
2019-05-02T06:50:20.814Z,70.00
2019-05-02T06:52:51.358Z,69.70
2019-05-02T06:55:22.011Z,70.30
2019-05-02T06:57:56.917Z,70.40
2019-05-02T07:00:35.779Z,70.90
2019-05-02T07:02:57.237Z,70.60
2019-05-02T07:05:28.269Z,68.80
2019-05-02T07:07:59.022Z,69.50
2019-05-02T07:10:37.845Z,71.60
2019-05-02T07:13:09.995Z,71.80
2019-05-02T07:15:53.829Z,69.20
2019-05-02T07:18:28.561Z,72.00
2019-05-02T07:20:59.386Z,70.30
2019-05-02T07:23:30.207Z,70.10
2019-05-02T07:26:00.816Z,71.10
2019-05-02T07:28:31.439Z,69.00
2019-05-02T07:31:06.602Z,69.10
2019-05-02T07:33:37.541Z,71.90
2019-05-02T07:36:06.539Z,69.70
2019-05-02T07:38:37.121Z,70.40
2019-05-02T07:41:07.858Z,69.30
2019-05-02T07:43:38.561Z,69.30
2019-05-02T07:46:09.143Z,70.00
2019-05-02T07:48:39.826Z,70.40
2019-05-02T07:51:10.716Z,71.20
2019-05-02T07:53:44.615Z,69.60
2019-05-02T07:56:17.774Z,70.10
2019-05-02T07:58:47.994Z,69.60
2019-05-02T08:01:17.788Z,69.00
2019-05-02T08:03:48.603Z,70.70
2019-05-02T08:06:19.213Z,68.10
2019-05-02T08:08:49.862Z,68.70
2019-05-02T08:11:20.443Z,67.50
2019-05-02T08:14:02.789Z,69.60
2019-05-02T08:16:33.571Z,67.70
2019-05-02T08:19:05.403Z,69.70
2019-05-02T08:21:36.321Z,70.70
2019-05-02T08:24:06.929Z,68.70
2019-05-02T08:26:58.306Z,67.90
2019-05-02T08:29:28.894Z,66.20
2019-05-02T08:31:59.558Z,66.40
2019-05-02T08:34:31.896Z,68.20
2019-05-02T08:37:04.603Z,65.70
2019-05-02T08:39:35.249Z,65.10
2019-05-02T08:42:06.074Z,65.40
2019-05-02T08:44:49.622Z,67.20
2019-05-02T08:47:18.799Z,63.50
2019-05-02T08:49:42.517Z,67.60
2019-05-02T08:52:13.268Z,68.60
2019-05-02T08:54:43.890Z,63.80
2019-05-02T08:57:14.647Z,60.00
2019-05-02T08:59:45.251Z,60.80
2019-05-02T09:02:15.848Z,62.70
2019-05-02T09:04:57.893Z,63.60
2019-05-02T09:07:19.033Z,63.30
2019-05-02T09:09:49.853Z,65.60
2019-05-02T09:12:22.786Z,62.70
2019-05-02T09:14:52.690Z,60.30
2019-05-02T09:17:35.071Z,59.30
2019-05-02T09:20:02.165Z,59.80
2019-05-02T09:22:29.228Z,59.50
2019-05-02T09:25:02.101Z,62.50
2019-05-02T09:27:33.415Z,58.40
2019-05-02T09:30:08.443Z,57.40
2019-05-02T09:32:39.124Z,56.70
2019-05-02T09:35:11.735Z,56.20
2019-05-02T09:37:42.139Z,56.10
2019-05-02T09:40:16.574Z,57.70
2019-05-02T09:42:47.665Z,58.40
2019-05-02T09:45:18.613Z,57.80
2019-05-02T09:48:01.338Z,57.80
2019-05-02T09:50:30.020Z,57.70
2019-05-02T09:52:53.524Z,60.70
2019-05-02T09:55:24.514Z,59.90
2019-05-02T09:57:55.219Z,56.40
2019-05-02T10:00:36.387Z,55.40
2019-05-02T10:03:07.100Z,56.90
2019-05-02T10:05:37.645Z,53.10
2019-05-02T10:08:11.645Z,53.40
2019-05-02T10:10:42.544Z,51.80
2019-05-02T10:13:12.373Z,55.30
2019-05-02T10:15:42.950Z,56.50
2019-05-02T10:18:14.882Z,55.20
2019-05-02T10:20:46.777Z,56.30
2019-05-02T10:23:20.745Z,53.80
2019-05-02T10:25:52.116Z,53.00
2019-05-02T10:28:23.150Z,52.00
2019-05-02T10:30:56.590Z,53.10
2019-05-02T10:33:27.941Z,54.80
2019-05-02T10:35:58.310Z,54.40
2019-05-02T10:38:32.354Z,55.40
2019-05-02T10:41:04.576Z,54.80
2019-05-02T10:43:34.327Z,57.30
2019-05-02T10:46:06.449Z,55.40
2019-05-02T10:48:38.644Z,59.80
2019-05-02T10:51:26.383Z,55.60
2019-05-02T10:53:57.132Z,55.50
2019-05-02T10:56:27.779Z,54.60
2019-05-02T10:58:58.436Z,52.60
2019-05-02T11:01:32.264Z,48.70
2019-05-02T11:04:04.487Z,54.60
2019-05-02T11:06:37.111Z,47.50
2019-05-02T11:09:09.520Z,49.20
2019-05-02T11:11:42.460Z,54.60
2019-05-02T11:14:14.684Z,53.90
2019-05-02T11:16:46.659Z,54.00
2019-05-02T11:19:21.962Z,54.20
2019-05-02T11:21:58.227Z,50.20
2019-05-02T11:24:24.807Z,51.40
2019-05-02T11:26:55.798Z,51.80
2019-05-02T11:29:26.418Z,52.00
2019-05-02T11:31:57.006Z,50.60
2019-05-02T11:34:27.691Z,49.60
2019-05-02T11:36:58.360Z,49.40
2019-05-02T11:39:37.026Z,50.70
2019-05-02T11:42:02.121Z,48.70
2019-05-02T11:44:32.823Z,47.60
2019-05-02T11:47:03.453Z,47.40
2019-05-02T11:49:34.033Z,42.00
2019-05-02T11:52:04.817Z,49.30
2019-05-02T11:54:39.168Z,48.70
2019-05-02T11:57:07.680Z,49.80
2019-05-02T11:59:38.541Z,50.20
2019-05-02T12:02:17.512Z,48.10
2019-05-02T12:04:47.290Z,48.80
2019-05-02T12:07:16.555Z,48.40
2019-05-02T12:09:55.132Z,47.40
2019-05-02T12:12:22.751Z,49.10
2019-05-02T12:14:53.498Z,48.80
2019-05-02T12:17:24.795Z,50.70
2019-05-02T12:19:55.525Z,49.40
2019-05-02T12:22:26.122Z,49.40
2019-05-02T12:24:56.807Z,46.70
2019-05-02T12:27:27.379Z,48.80
2019-05-02T12:29:59.306Z,49.80
2019-05-02T12:32:30.381Z,48.80
2019-05-02T12:35:02.465Z,48.30
2019-05-02T12:37:33.341Z,49.00
2019-05-02T12:40:04.901Z,49.40
2019-05-02T12:42:35.995Z,48.60
2019-05-02T12:45:07.528Z,47.80
2019-05-02T12:47:38.066Z,47.80
2019-05-02T12:50:08.727Z,49.60
2019-05-02T12:52:39.342Z,49.80
2019-05-02T12:55:10.240Z,52.00
2019-05-02T12:57:42.734Z,48.00
2019-05-02T13:00:13.446Z,45.80
2019-05-02T13:02:58.146Z,44.70
2019-05-02T13:05:29.028Z,48.20
2019-05-02T13:07:59.657Z,51.40
2019-05-02T13:10:34.902Z,51.10
2019-05-02T13:13:07.309Z,51.50
2019-05-02T13:15:39.158Z,51.90
2019-05-02T13:18:09.897Z,53.00
2019-05-02T13:20:41.748Z,52.60
2019-05-02T13:23:34.102Z,54.20
2019-05-02T13:26:10.591Z,56.20
2019-05-02T13:28:36.894Z,56.00
2019-05-02T13:31:14.890Z,54.50
2019-05-02T13:33:52.926Z,55.90
2019-05-02T13:36:45.199Z,58.50
2019-05-02T13:39:36.147Z,57.70
2019-05-02T13:42:07.442Z,59.20
2019-05-02T13:44:42.815Z,59.30
2019-05-02T13:47:15.190Z,58.00
2019-05-02T13:49:53.826Z,57.10
2019-05-02T13:52:17.931Z,58.10
2019-05-02T13:54:49.127Z,59.30
2019-05-02T13:57:21.647Z,60.10
2019-05-02T13:59:52.612Z,60.80
2019-05-02T14:02:36.827Z,63.00
2019-05-02T14:05:09.493Z,63.80
2019-05-02T14:07:42.913Z,63.40
2019-05-02T14:10:33.719Z,62.70
2019-05-02T14:13:03.278Z,61.50
2019-05-02T14:15:36.736Z,61.90
2019-05-02T14:18:07.389Z,59.50
2019-05-02T14:20:38.155Z,60.30
2019-05-02T14:23:09.078Z,61.10
2019-05-02T14:25:42.457Z,59.00
2019-05-02T14:28:13.086Z,61.50
2019-05-02T14:30:46.309Z,60.30
2019-05-02T14:33:24.839Z,60.40
2019-05-02T14:35:55.405Z,60.50
2019-05-02T14:38:25.992Z,61.40
2019-05-02T14:41:12.265Z,61.00
2019-05-02T14:43:53.328Z,61.90
2019-05-02T14:46:34.035Z,61.10
2019-05-02T14:48:58.498Z,59.50
2019-05-02T14:51:29.869Z,61.40
2019-05-02T14:54:08.181Z,60.60
2019-05-02T14:56:42.499Z,61.00
2019-05-02T14:59:15.300Z,58.70
2019-05-02T15:01:46.760Z,59.20
2019-05-02T15:04:16.175Z,61.30
2019-05-02T15:06:47.563Z,61.90
2019-05-02T15:09:22.542Z,60.00
2019-05-02T15:11:52.605Z,58.30
2019-05-02T15:14:23.568Z,59.60
2019-05-02T15:16:58.070Z,59.40
2019-05-02T15:19:26.568Z,59.50
2019-05-02T15:21:57.486Z,61.60
2019-05-02T15:24:33.405Z,58.50
2019-05-02T15:27:03.656Z,56.30
2019-05-02T15:29:34.579Z,58.20
2019-05-02T15:32:07.491Z,55.50
2019-05-02T15:34:46.250Z,55.60
2019-05-02T15:37:12.482Z,57.40
2019-05-02T15:42:17.820Z,51.90
2019-05-02T15:44:52.118Z,54.00
2019-05-02T15:47:22.947Z,52.90
2019-05-02T15:49:53.783Z,54.30
2019-05-02T15:52:27.895Z,53.50
2019-05-02T15:55:00.480Z,52.20
2019-05-02T15:57:40.976Z,54.00
2019-05-02T16:00:03.847Z,53.20
2019-05-02T16:02:35.718Z,54.50
2019-05-02T16:05:07.613Z,55.00
2019-05-02T16:07:43.380Z,55.40
2019-05-02T16:10:13.097Z,56.90
2019-05-02T16:12:45.674Z,56.80
2019-05-02T16:15:21.360Z,57.80
2019-05-02T16:17:52.263Z,58.20
2019-05-02T16:20:32.365Z,58.50
2019-05-02T16:23:03.202Z,59.00
2019-05-02T16:25:34.118Z,59.70
2019-05-02T16:28:06.179Z,59.30
2019-05-02T16:30:44.225Z,60.20
2019-05-02T16:33:18.949Z,60.80
2019-05-02T16:35:42.049Z,61.50
2019-05-02T16:38:14.341Z,62.80
2019-05-02T16:40:45.526Z,62.90
2019-05-02T16:43:16.559Z,63.90
2019-05-02T16:45:47.554Z,65.50
2019-05-02T16:48:18.323Z,65.50
2019-05-02T16:50:49.059Z,65.90
2019-05-02T16:53:22.525Z,67.00
2019-05-02T16:55:53.653Z,67.90
2019-05-02T16:58:24.655Z,68.40
2019-05-02T17:00:55.587Z,68.90
2019-05-02T17:03:26.700Z,69.30
2019-05-02T17:05:57.645Z,69.20
2019-05-02T17:08:49.527Z,70.10
2019-05-02T17:11:27.862Z,70.20
2019-05-02T17:13:58.073Z,70.10
2019-05-02T17:16:28.984Z,70.30
2019-05-02T17:19:01.556Z,70.50
2019-05-02T17:21:51.449Z,70.60
2019-05-02T17:24:04.638Z,70.80
2019-05-02T17:26:35.527Z,70.50
2019-05-02T17:29:06.161Z,71.60
2019-05-02T17:31:38.042Z,71.40
2019-05-02T17:34:08.953Z,71.90
2019-05-02T17:36:39.641Z,72.30
2019-05-02T17:39:10.274Z,72.70
2019-05-02T17:41:42.294Z,73.40
2019-05-02T17:44:18.442Z,74.60
2019-05-02T17:46:50.823Z,74.70
2019-05-02T17:49:23.069Z,74.80
2019-05-02T17:52:11.233Z,74.80
2019-05-02T17:54:42.321Z,75.60
2019-05-02T17:57:14.546Z,75.80
2019-05-02T17:59:45.188Z,76.40
2019-05-02T18:02:16.105Z,76.50
2019-05-02T18:04:52.179Z,77.20
2019-05-02T18:07:19.459Z,77.40
2019-05-02T18:09:52.335Z,78.00
2019-05-02T18:12:23.058Z,78.10
2019-05-02T18:14:59.187Z,79.80
2019-05-02T18:17:27.821Z,79.80
2019-05-02T18:20:02.296Z,80.10
2019-05-02T18:22:34.893Z,80.80
2019-05-02T18:25:08.252Z,80.80
2019-05-02T18:27:38.879Z,81.30
2019-05-02T18:30:09.761Z,81.50
2019-05-02T18:32:42.029Z,81.20
2019-05-02T18:35:14.022Z,80.90
2019-05-02T18:37:46.932Z,81.20
2019-05-02T18:40:20.281Z,81.30
2019-05-02T18:42:51.934Z,80.60
2019-05-02T18:45:28.547Z,79.70
2019-05-02T18:48:02.488Z,79.00
2019-05-02T18:50:42.560Z,78.90
2019-05-02T18:53:10.899Z,78.40
2019-05-02T18:55:42.341Z,77.30
2019-05-02T18:58:14.898Z,77.70
2019-05-02T19:00:46.327Z,76.90
2019-05-02T19:03:19.837Z,76.50
2019-05-02T19:05:51.672Z,76.70
2019-05-02T19:08:31.237Z,76.30
2019-05-02T19:11:06.054Z,76.60
2019-05-02T19:13:31.567Z,76.00
2019-05-02T19:16:02.809Z,75.20
2019-05-02T19:18:34.207Z,75.80
2019-05-02T19:21:05.597Z,75.30
2019-05-02T19:23:38.470Z,75.40
2019-05-02T19:26:10.466Z,74.30
2019-05-02T19:28:46.496Z,72.90
2019-05-02T19:31:17.565Z,72.30
2019-05-02T19:33:48.787Z,70.80
2019-05-02T19:36:24.391Z,71.70
2019-05-02T19:38:52.579Z,71.00
2019-05-02T19:41:24.288Z,70.00
2019-05-02T19:43:55.326Z,71.00
2019-05-02T19:46:34.631Z,71.60
2019-05-02T19:48:58.815Z,72.30
2019-05-02T19:51:31.593Z,72.00
2019-05-02T19:54:06.735Z,71.60
2019-05-02T19:56:43.972Z,71.60
2019-05-02T19:59:08.717Z,71.80
2019-05-02T20:01:39.550Z,71.80
2019-05-02T20:04:11.837Z,71.80
2019-05-02T20:06:43.953Z,72.00
2019-05-02T20:09:17.909Z,72.50
2019-05-02T20:11:48.359Z,72.70
2019-05-02T20:14:21.695Z,72.90
2019-05-02T20:16:53.627Z,73.40
2019-05-02T20:19:26.962Z,73.40
2019-05-02T20:22:02.935Z,73.80
2019-05-02T20:24:42.175Z,74.90
2019-05-02T20:27:12.799Z,74.30
2019-05-02T20:29:43.829Z,75.70
2019-05-02T20:32:14.509Z,75.30
2019-05-02T20:34:45.326Z,75.90
2019-05-02T20:37:16.239Z,77.50
2019-05-02T20:39:49.736Z,77.80
2019-05-02T20:42:20.930Z,77.60
2019-05-02T20:44:52.782Z,77.70
2019-05-02T20:47:42.849Z,77.90
2019-05-02T20:50:13.646Z,76.80
2019-05-02T20:52:44.488Z,77.40
2019-05-02T20:55:18.557Z,78.10
2019-05-02T20:57:49.247Z,77.60
2019-05-02T21:00:28.038Z,78.40
2019-05-02T21:02:59.070Z,76.40
2019-05-02T21:05:34.768Z,78.10
2019-05-02T21:08:11.908Z,77.90
2019-05-02T21:11:02.833Z,77.90
2019-05-02T21:13:33.773Z,76.50
2019-05-02T21:16:04.425Z,77.60
2019-05-02T21:18:35.646Z,77.30
2019-05-02T21:21:07.733Z,76.30
2019-05-02T21:23:44.752Z,76.70
2019-05-02T21:26:10.861Z,77.50
2019-05-02T21:28:42.844Z,77.50
2019-05-02T21:31:15.054Z,77.70
2019-05-02T21:33:45.750Z,78.40
2019-05-02T21:36:16.549Z,78.80
2019-05-02T21:38:47.732Z,78.70
2019-05-02T21:41:18.701Z,79.00
2019-05-02T21:43:49.253Z,79.30
2019-05-02T21:46:19.851Z,79.40
2019-05-02T21:48:52.474Z,79.90
2019-05-02T21:51:24.293Z,80.10
2019-05-02T21:54:12.078Z,81.00
2019-05-02T21:57:02.646Z,81.70
2019-05-02T21:59:33.535Z,82.20
2019-05-02T22:02:05.161Z,82.70
2019-05-02T22:04:35.641Z,83.10
2019-05-02T22:07:07.934Z,83.10
2019-05-02T22:09:38.539Z,82.80
2019-05-02T22:12:09.144Z,82.60
2019-05-02T22:14:40.404Z,83.30
2019-05-02T22:17:12.710Z,82.90
2019-05-02T22:19:43.474Z,82.80
2019-05-02T22:22:14.808Z,82.70
2019-05-02T22:24:45.445Z,82.30
2019-05-02T22:27:16.023Z,83.60
2019-05-02T22:29:46.627Z,84.10
2019-05-02T22:32:17.253Z,83.90
2019-05-02T22:34:48.176Z,83.70
2019-05-02T22:37:21.947Z,83.90
2019-05-02T22:39:54.245Z,84.30
2019-05-02T22:42:24.885Z,84.40
2019-05-02T22:44:55.631Z,84.20
2019-05-02T22:47:26.320Z,84.50
2019-05-02T22:49:56.861Z,84.80
2019-05-02T22:52:27.526Z,84.80
2019-05-02T22:54:58.056Z,85.00
2019-05-02T22:57:28.765Z,85.10
2019-05-02T22:59:59.302Z,85.50
2019-05-02T23:02:29.847Z,85.90
2019-05-02T23:05:02.005Z,86.30
2019-05-02T23:07:33.611Z,85.80
2019-05-02T23:10:04.899Z,85.90
2019-05-02T23:12:35.691Z,86.00
2019-05-02T23:15:07.097Z,86.10
2019-05-02T23:17:37.708Z,86.00
2019-05-02T23:20:08.580Z,85.90
2019-05-02T23:22:39.070Z,85.80
2019-05-02T23:25:27.643Z,85.50
2019-05-02T23:27:59.645Z,86.60
2019-05-02T23:30:31.770Z,85.70
2019-05-02T23:33:02.581Z,85.70
2019-05-02T23:35:34.268Z,85.90
2019-05-02T23:38:05.222Z,86.20
2019-05-02T23:40:35.813Z,85.60
2019-05-02T23:43:06.451Z,85.40
2019-05-02T23:45:37.328Z,85.20
2019-05-02T23:48:07.937Z,85.10
2019-05-02T23:50:38.557Z,85.80
2019-05-02T23:53:09.194Z,86.60
2019-05-02T23:55:39.792Z,87.30
2019-05-02T23:58:11.967Z,87.40
